Time;durP1;ratioP1;P1;durP2;ratioP2;P2;SDS_P1;SDS_P2;PMS_P1;PMS_P2;Temp;Humidity;BMP_temperature;BMP_pressure;BME280_temperature;BME280_humidity;BME280_pressure;Samples;Min_cycle;Max_cycle;Signal;HPM_P1;HPM_P2
2021/09/18 00:01:32;;;;;;;62.45;34.70;;;;;;;13.04;95.94;101825.84;5052071;28;20043;-76
2021/09/18 00:03:58;;;;;;;66.65;35.38;;;;;;;13.01;96.90;101826.09;5052706;28;20067;-76
2021/09/18 00:06:23;;;;;;;64.13;34.08;;;;;;;12.94;97.03;101830.25;5051091;28;20089;-76
2021/09/18 00:08:49;;;;;;;59.03;31.33;;;;;;;12.85;96.55;101821.22;5051882;28;20354;-76
2021/09/18 00:11:14;;;;;;;55.85;33.75;;;;;;;12.79;96.24;101819.06;5052069;28;20025;-76
2021/09/18 00:13:40;;;;;;;54.40;30.95;;;;;;;12.73;96.33;101820.41;5051712;28;20033;-76
2021/09/18 00:16:05;;;;;;;62.45;35.05;;;;;;;12.73;96.51;101819.59;5052486;28;20522;-75
2021/09/18 00:18:31;;;;;;;57.97;32.55;;;;;;;12.70;96.88;101818.00;5051573;28;20039;-76
2021/09/18 00:20:58;;;;;;;61.60;33.13;;;;;;;12.68;96.54;101817.31;5052186;28;20393;-76
2021/09/18 00:23:23;;;;;;;75.90;36.97;;;;;;;12.67;97.41;101819.13;5050736;28;20116;-76
2021/09/18 00:25:49;;;;;;;67.22;34.67;;;;;;;12.66;97.62;101820.09;5052501;28;20124;-76
2021/09/18 00:28:14;;;;;;;65.20;33.85;;;;;;;12.62;97.18;101821.31;5052150;28;20458;-76
2021/09/18 00:30:40;;;;;;;66.10;34.22;;;;;;;12.62;97.12;101816.00;5052026;28;20029;-75
2021/09/18 00:33:05;;;;;;;64.45;34.10;;;;;;;12.63;97.22;101815.03;5052323;28;20033;-76
2021/09/18 00:35:31;;;;;;;70.05;36.30;;;;;;;12.62;97.24;101820.50;5051437;28;20477;-76
2021/09/18 00:37:56;;;;;;;73.05;36.15;;;;;;;12.62;97.35;101817.81;5052227;28;20021;-76
2021/09/18 00:40:22;;;;;;;61.90;33.47;;;;;;;12.58;97.52;101825.22;5051642;28;20041;-77
2021/09/18 00:42:47;;;;;;;79.38;38.72;;;;;;;12.57;97.58;101825.34;5052202;28;20087;-76
2021/09/18 00:45:13;;;;;;;82.60;40.65;;;;;;;12.57;97.88;101822.69;5052352;28;20035;-76
2021/09/18 00:47:38;;;;;;;70.32;36.38;;;;;;;12.56;98.17;101824.50;5051538;28;20033;-77
2021/09/18 00:50:06;;;;;;;71.93;37.75;;;;;;;12.55;97.99;101825.47;5051811;28;20480;-76
2021/09/18 00:52:31;;;;;;;76.88;37.78;;;;;;;12.59;98.26;101818.91;5051064;28;20124;-76
2021/09/18 00:54:57;;;;;;;83.03;40.22;;;;;;;12.65;98.44;101820.22;5052039;28;20056;-76
2021/09/18 00:57:22;;;;;;;80.82;39.40;;;;;;;12.69;99.10;101821.69;5051297;28;20037;-77
2021/09/18 00:59:48;;;;;;;80.13;38.10;;;;;;;12.71;98.81;101822.38;5052519;28;20362;-76
2021/09/18 01:02:13;;;;;;;79.28;39.92;;;;;;;12.71;98.68;101825.06;5055732;28;20031;-76
2021/09/18 01:04:39;;;;;;;80.07;37.97;;;;;;;12.69;98.89;101819.84;5055236;28;20033;-77
2021/09/18 01:07:05;;;;;;;78.65;38.40;;;;;;;12.70;98.70;101816.22;5056296;28;20085;-76
2021/09/18 01:09:31;;;;;;;77.57;37.42;;;;;;;12.69;98.83;101816.34;5055019;28;20083;-76
2021/09/18 01:11:58;;;;;;;70.00;35.20;;;;;;;12.66;98.56;101813.94;5055526;28;20036;-76
2021/09/18 01:14:23;;;;;;;59.28;32.67;;;;;;;12.64;98.53;101815.84;5055045;28;20033;-77
2021/09/18 01:16:49;;;;;;;55.50;31.27;;;;;;;12.61;98.41;101816.94;5055882;28;20079;-76
2021/09/18 01:19:14;;;;;;;63.45;33.45;;;;;;;12.62;98.16;101817.81;5055521;28;20065;-76
2021/09/18 01:21:40;;;;;;;58.65;32.08;;;;;;;12.61;98.17;101811.63;5054754;28;20477;-76
2021/09/18 01:24:05;;;;;;;54.50;31.23;;;;;;;12.59;97.82;101810.91;5055515;28;20465;-76
2021/09/18 01:26:33;;;;;;;56.72;30.80;;;;;;;12.56;97.76;101813.84;5054651;28;20116;-76
2021/09/18 01:28:59;;;;;;;52.38;30.15;;;;;;;12.51;97.65;101811.56;5055692;28;20112;-76
2021/09/18 01:31:25;;;;;;;57.92;31.75;;;;;;;12.45;97.75;101801.41;5054497;28;20039;-78
2021/09/18 01:33:51;;;;;;;62.17;34.10;;;;;;;12.42;97.49;101803.44;5055428;28;20121;-76
2021/09/18 01:36:16;;;;;;;80.95;40.17;;;;;;;12.40;98.00;101806.25;5055336;28;20044;-76
2021/09/18 01:38:42;;;;;;;82.15;40.03;;;;;;;12.38;98.13;101804.72;5054718;28;20025;-76
2021/09/18 01:41:07;;;;;;;79.50;38.08;;;;;;;12.32;98.07;101806.88;5055277;28;20029;-76
2021/09/18 01:43:33;;;;;;;79.53;40.95;;;;;;;12.25;98.28;101807.53;5054559;28;20135;-76
2021/09/18 01:45:58;;;;;;;69.10;38.03;;;;;;;12.19;98.23;101805.38;5053992;28;20111;-76
2021/09/18 01:48:23;;;;;;;80.18;39.03;;;;;;;12.10;97.89;101809.63;5054841;28;20044;-76
2021/09/18 01:50:58;;;;;;;75.15;37.40;;;;;;;12.03;97.91;101797.75;5054381;28;20033;-76
2021/09/18 01:53:24;;;;;;;77.63;39.25;;;;;;;11.93;98.06;101803.84;5055091;28;20366;-75
2021/09/18 01:55:51;;;;;;;80.07;40.63;;;;;;;11.85;98.27;101798.25;5054301;28;20033;-76
2021/09/18 01:58:18;;;;;;;77.47;38.67;;;;;;;11.78;98.04;101800.56;5054512;28;20037;-76
2021/09/18 02:00:52;;;;;;;75.30;37.58;;;;;;;11.70;98.16;101803.00;5054192;28;20025;-76
2021/09/18 02:03:18;;;;;;;75.30;38.03;;;;;;;11.62;98.13;101806.28;5054709;28;20480;-76
2021/09/18 02:05:44;;;;;;;68.60;35.17;;;;;;;11.55;97.64;101802.41;5053904;28;20106;-76
2021/09/18 02:08:10;;;;;;;62.08;33.40;;;;;;;11.52;97.58;101797.31;5054424;28;20037;-76
2021/09/18 02:10:36;;;;;;;75.32;37.10;;;;;;;11.51;97.83;101798.31;5053999;28;20036;-76
2021/09/18 02:13:03;;;;;;;99.90;44.55;;;;;;;11.54;98.45;101798.06;5053582;28;20029;-76
2021/09/18 02:15:29;;;;;;;108.80;46.40;;;;;;;11.56;99.21;101793.44;5053266;28;20033;-76
2021/09/18 02:17:55;;;;;;;105.70;45.90;;;;;;;11.56;99.35;101797.94;5054684;28;20031;-76
2021/09/18 02:20:24;;;;;;;110.10;45.88;;;;;;;11.56;99.27;101795.28;5054752;28;20037;-76
2021/09/18 02:22:50;;;;;;;85.57;39.97;;;;;;;11.55;99.51;101797.06;5053592;28;20643;-76
2021/09/18 02:25:16;;;;;;;85.93;40.10;;;;;;;11.53;99.39;101795.53;5054358;28;20041;-75
2021/09/18 02:27:43;;;;;;;98.28;43.83;;;;;;;11.52;99.17;101801.81;5052023;28;20041;-76
2021/09/18 02:30:11;;;;;;;116.78;46.63;;;;;;;11.53;99.49;101796.34;5053973;28;20032;-75
2021/09/18 02:32:37;;;;;;;93.03;40.85;;;;;;;11.51;99.69;101797.44;5053161;28;20536;-76
2021/09/18 02:35:05;;;;;;;106.07;43.17;;;;;;;11.50;99.51;101803.75;5054265;28;20116;-76
2021/09/18 02:37:30;;;;;;;105.80;45.10;;;;;;;11.46;99.79;101797.81;5054087;28;20504;-76
2021/09/18 02:39:56;;;;;;;90.53;41.40;;;;;;;11.41;99.53;101789.34;5052226;28;20082;-76
2021/09/18 02:42:21;;;;;;;87.50;39.40;;;;;;;11.34;99.71;101791.63;5054012;28;20457;-75
2021/09/18 02:44:46;;;;;;;97.72;42.67;;;;;;;11.33;99.50;101779.28;5053302;28;20041;-76
2021/09/18 02:47:12;;;;;;;95.50;40.97;;;;;;;11.28;99.25;101784.97;5053707;28;20397;-76
2021/09/18 02:49:37;;;;;;;119.85;46.50;;;;;;;11.27;99.62;101782.41;5052965;28;20394;-75
2021/09/18 02:52:03;;;;;;;101.80;42.38;;;;;;;11.24;99.52;101775.53;5053786;28;20091;-76
2021/09/18 02:54:28;;;;;;;109.43;44.40;;;;;;;11.21;99.77;101777.56;5054056;28;20033;-75
2021/09/18 02:56:53;;;;;;;111.82;45.05;;;;;;;11.20;99.70;101775.91;5053035;28;20045;-76
2021/09/18 02:59:19;;;;;;;99.57;41.60;;;;;;;11.14;99.90;101777.22;5052631;28;20025;-76
2021/09/18 03:01:44;;;;;;;114.75;45.08;;;;;;;11.12;100.00;101781.81;5053140;28;20506;-77
2021/09/18 03:04:09;;;;;;;117.53;45.85;;;;;;;11.12;100.00;101779.13;5053313;28;20374;-76
2021/09/18 03:06:35;;;;;;;117.78;45.70;;;;;;;11.09;100.00;101769.59;5052916;28;20080;-79
2021/09/18 03:09:00;;;;;;;100.00;41.75;;;;;;;11.06;100.00;101774.28;5053337;28;20516;-75
2021/09/18 03:11:26;;;;;;;112.30;45.58;;;;;;;11.02;100.00;101778.19;5053756;28;20053;-76
2021/09/18 03:13:51;;;;;;;115.30;44.80;;;;;;;10.98;100.00;101774.91;5053116;28;20021;-76
2021/09/18 03:16:17;;;;;;;109.28;45.00;;;;;;;10.96;100.00;101768.84;5053598;28;20040;-75
2021/09/18 03:18:42;;;;;;;111.20;44.60;;;;;;;10.94;100.00;101774.28;5052936;28;20037;-77
2021/09/18 03:21:08;;;;;;;114.80;43.63;;;;;;;10.91;100.00;101774.53;5053600;28;20108;-76
2021/09/18 03:23:33;;;;;;;113.93;45.10;;;;;;;10.87;100.00;101775.72;5053708;28;20032;-76
2021/09/18 03:25:59;;;;;;;113.53;45.80;;;;;;;10.86;100.00;101773.19;5052643;28;20120;-76
2021/09/18 03:28:24;;;;;;;121.88;45.97;;;;;;;10.85;100.00;101774.16;5053288;28;20036;-76
2021/09/18 03:30:50;;;;;;;129.48;48.40;;;;;;;10.86;100.00;101775.84;5052204;28;20044;-76
2021/09/18 03:33:15;;;;;;;129.82;47.35;;;;;;;10.82;100.00;101772.56;5052962;28;20040;-76
2021/09/18 03:35:42;;;;;;;137.02;51.25;;;;;;;10.81;100.00;101778.88;5052313;28;20485;-77
2021/09/18 03:38:10;;;;;;;168.98;57.95;;;;;;;10.83;100.00;101787.56;5053281;28;20029;-75
2021/09/18 03:40:36;;;;;;;146.48;53.05;;;;;;;10.84;100.00;101773.31;5051752;28;20036;-76
2021/09/18 03:43:02;;;;;;;165.45;56.05;;;;;;;10.86;100.00;101779.34;5052458;28;20029;-76
2021/09/18 03:45:27;;;;;;;147.65;53.55;;;;;;;10.86;100.00;101778.50;5052463;28;20040;-76
2021/09/18 03:47:53;;;;;;;147.02;49.92;;;;;;;10.84;100.00;101783.97;5034408;28;20037;-76
2021/09/18 03:50:18;;;;;;;131.07;48.28;;;;;;;10.83;100.00;101784.06;5052470;28;20119;-76
2021/09/18 03:52:43;;;;;;;155.80;53.15;;;;;;;10.83;100.00;101789.41;5051916;28;20473;-76
2021/09/18 03:55:09;;;;;;;145.65;52.30;;;;;;;10.81;100.00;101786.84;5051250;28;20083;-76
2021/09/18 03:57:35;;;;;;;137.20;52.67;;;;;;;10.81;100.00;101783.31;5052351;28;20108;-75
2021/09/18 04:00:00;;;;;;;143.73;52.85;;;;;;;10.78;100.00;101789.75;5051743;28;20068;-75
2021/09/18 04:02:26;;;;;;;142.88;51.72;;;;;;;10.78;100.00;101787.09;5051201;28;20064;-76
2021/09/18 04:04:51;;;;;;;142.98;50.97;;;;;;;10.79;100.00;101796.75;5051970;28;20083;-76
2021/09/18 04:07:17;;;;;;;160.02;53.47;;;;;;;10.81;100.00;101791.31;5052809;28;20060;-76
2021/09/18 04:09:42;;;;;;;202.93;62.47;;;;;;;10.84;100.00;101786.63;5051734;28;20033;-79
2021/09/18 04:12:07;;;;;;;167.15;57.83;;;;;;;10.91;100.00;101794.97;5052547;28;20075;-75
2021/09/18 04:14:32;;;;;;;154.90;53.20;;;;;;;10.94;100.00;101803.59;5052079;28;20033;-75
2021/09/18 04:16:58;;;;;;;181.55;58.85;;;;;;;10.98;100.00;101800.69;5050548;28;20029;-76
2021/09/18 04:19:23;;;;;;;179.45;58.50;;;;;;;11.02;100.00;101796.81;5051219;28;20037;-76
2021/09/18 04:21:49;;;;;;;153.20;53.15;;;;;;;11.06;100.00;101807.13;5051361;28;20041;-76
2021/09/18 04:24:14;;;;;;;165.05;53.47;;;;;;;11.09;100.00;101803.34;5051968;28;20079;-76
2021/09/18 04:26:39;;;;;;;197.15;60.45;;;;;;;11.13;100.00;101806.63;5052181;28;20033;-76
2021/09/18 04:29:05;;;;;;;160.13;55.92;;;;;;;11.16;100.00;101804.56;5051812;28;20052;-76
2021/09/18 04:31:31;;;;;;;166.77;56.08;;;;;;;11.18;100.00;101802.66;5052271;28;20389;-76
2021/09/18 04:33:56;;;;;;;167.90;54.65;;;;;;;11.20;100.00;101799.88;5051607;28;20465;-75
2021/09/18 04:36:22;;;;;;;169.48;56.20;;;;;;;11.22;100.00;101804.09;5055564;28;20481;-76
2021/09/18 04:38:47;;;;;;;156.85;53.33;;;;;;;11.22;100.00;101801.44;5054663;28;20402;-76
2021/09/18 04:41:12;;;;;;;149.48;51.65;;;;;;;11.21;100.00;101794.44;5056588;28;20021;-76
2021/09/18 04:43:38;;;;;;;137.27;48.75;;;;;;;11.20;100.00;101808.69;5056310;28;20029;-75
2021/09/18 04:46:03;;;;;;;165.60;55.75;;;;;;;11.21;100.00;101810.41;5054306;28;20458;-75
2021/09/18 04:48:29;;;;;;;161.70;54.10;;;;;;;11.24;100.00;101810.16;5056235;28;20033;-75
2021/09/18 04:50:55;;;;;;;166.90;57.58;;;;;;;11.24;100.00;101812.84;5055529;28;20087;-76
2021/09/18 04:53:20;;;;;;;164.02;53.15;;;;;;;11.25;100.00;101813.66;5055923;28;20041;-75
2021/09/18 04:55:46;;;;;;;172.20;58.58;;;;;;;11.24;100.00;101809.31;5056036;28;20470;-75
2021/09/18 04:58:11;;;;;;;156.68;54.88;;;;;;;11.22;100.00;101814.75;5055358;28;20132;-75
2021/09/18 05:00:37;;;;;;;169.27;55.95;;;;;;;11.23;100.00;101811.13;5054474;28;20469;-75
2021/09/18 05:03:03;;;;;;;155.45;52.10;;;;;;;11.23;100.00;101823.59;5055332;28;20029;-75
2021/09/18 05:05:28;;;;;;;161.82;52.10;;;;;;;11.20;100.00;101827.34;5055649;28;20052;-75
2021/09/18 05:07:54;;;;;;;150.98;53.38;;;;;;;11.21;100.00;101820.19;5055361;28;20078;-75
2021/09/18 05:10:19;;;;;;;149.95;50.80;;;;;;;11.20;100.00;101819.34;5055562;28;20033;-74
2021/09/18 05:12:44;;;;;;;159.75;55.58;;;;;;;11.22;100.00;101820.06;5055233;28;20032;-75
2021/09/18 05:15:10;;;;;;;150.90;53.35;;;;;;;11.22;100.00;101814.75;5053307;28;20469;-75
2021/09/18 05:17:36;;;;;;;167.02;55.80;;;;;;;11.24;100.00;101823.50;5055079;28;20163;-75
2021/09/18 05:20:02;;;;;;;184.23;59.45;;;;;;;11.28;100.00;101822.25;5054491;28;20089;-75
2021/09/18 05:22:27;;;;;;;175.23;56.05;;;;;;;11.32;100.00;101822.03;5055092;28;20025;-75
2021/09/18 05:24:52;;;;;;;158.93;53.03;;;;;;;11.32;100.00;101825.56;5054073;28;20036;-76
2021/09/18 05:27:18;;;;;;;156.18;54.35;;;;;;;11.32;100.00;101830.88;5052093;28;20033;-76
2021/09/18 05:29:44;;;;;;;144.52;50.47;;;;;;;11.31;100.00;101833.66;5055002;28;20037;-75
2021/09/18 05:32:13;;;;;;;147.57;51.88;;;;;;;11.31;100.00;101829.16;5054339;28;20029;-75
2021/09/18 05:34:39;;;;;;;152.35;53.90;;;;;;;11.31;100.00;101833.66;5052223;28;20029;-75
2021/09/18 05:37:05;;;;;;;146.25;52.63;;;;;;;11.34;100.00;101842.25;5054217;28;20051;-75
2021/09/18 05:39:30;;;;;;;163.82;55.35;;;;;;;11.37;100.00;101841.16;5054862;28;20029;-75
2021/09/18 05:41:56;;;;;;;149.50;52.10;;;;;;;11.41;100.00;101843.47;5052927;28;20103;-75
2021/09/18 05:44:22;;;;;;;140.68;52.58;;;;;;;11.47;100.00;101847.47;5054702;28;20055;-75
2021/09/18 05:46:47;;;;;;;156.38;53.30;;;;;;;11.50;100.00;101844.56;5052993;28;20025;-75
2021/09/18 05:49:13;;;;;;;166.20;56.28;;;;;;;11.55;100.00;101842.38;5054141;28;20044;-75
2021/09/18 05:51:38;;;;;;;168.60;57.20;;;;;;;11.58;100.00;101852.81;5051755;28;20331;-75
2021/09/18 05:54:03;;;;;;;156.63;56.58;;;;;;;11.62;100.00;101851.59;5053901;28;20104;-75
2021/09/18 05:56:29;;;;;;;157.15;54.13;;;;;;;11.64;100.00;101841.69;5054082;28;20113;-75
2021/09/18 05:58:54;;;;;;;138.57;51.67;;;;;;;11.67;100.00;101853.91;5053478;28;20052;-77
2021/09/18 06:01:19;;;;;;;145.27;52.28;;;;;;;11.71;100.00;101851.84;5053583;28;20040;-75
2021/09/18 06:03:45;;;;;;;159.30;56.40;;;;;;;11.76;100.00;101842.53;5054296;28;20056;-76
2021/09/18 06:06:10;;;;;;;143.77;53.88;;;;;;;11.81;100.00;101845.66;5052133;28;20091;-75
2021/09/18 06:08:36;;;;;;;148.00;55.08;;;;;;;11.87;100.00;101849.66;5054066;28;20419;-76
2021/09/18 06:11:01;;;;;;;153.63;58.45;;;;;;;11.90;100.00;101851.25;5053502;28;20423;-76
2021/09/18 06:13:26;;;;;;;155.13;59.33;;;;;;;11.93;100.00;101857.19;5054116;28;20082;-75
2021/09/18 06:15:52;;;;;;;167.20;61.15;;;;;;;11.97;100.00;101860.44;5053310;28;20377;-75
2021/09/18 06:18:17;;;;;;;155.43;56.63;;;;;;;12.01;100.00;101859.25;5053621;28;20033;-75
2021/09/18 06:20:43;;;;;;;151.43;56.35;;;;;;;12.05;100.00;101866.03;5054000;28;20041;-75
2021/09/18 06:23:08;;;;;;;144.55;55.83;;;;;;;12.08;100.00;101862.28;5053282;28;20033;-75
2021/09/18 06:25:34;;;;;;;137.38;53.08;;;;;;;12.11;100.00;101856.69;5053837;28;20374;-74
2021/09/18 06:27:59;;;;;;;136.15;54.78;;;;;;;12.14;100.00;101869.78;5053473;28;20045;-75
2021/09/18 06:30:24;;;;;;;127.35;53.60;;;;;;;12.19;100.00;101874.75;5053591;28;20034;-74
2021/09/18 06:32:50;;;;;;;126.60;51.67;;;;;;;12.21;100.00;101868.31;5053562;28;20112;-74
2021/09/18 06:35:15;;;;;;;132.02;54.15;;;;;;;12.25;100.00;101875.06;5052852;28;20064;-75
2021/09/18 06:37:46;;;;;;;120.03;49.33;;;;;;;12.30;100.00;101872.03;5053197;28;20550;-75
2021/09/18 06:40:14;;;;;;;131.98;53.03;;;;;;;12.38;100.00;101874.94;5053187;28;20072;-75
2021/09/18 06:42:39;;;;;;;125.97;52.38;;;;;;;12.46;100.00;101871.63;5053938;28;20047;-74
2021/09/18 06:45:09;;;;;;;117.63;49.83;;;;;;;12.53;100.00;101871.00;5053385;28;20120;-74
2021/09/18 06:47:35;;;;;;;115.57;50.00;;;;;;;12.58;100.00;101869.78;5053960;28;20033;-74
2021/09/18 06:50:00;;;;;;;114.28;48.78;;;;;;;12.66;100.00;101875.34;5051837;28;20098;-74
2021/09/18 06:52:25;;;;;;;99.80;45.15;;;;;;;12.70;100.00;101874.94;5053677;28;20548;-73
2021/09/18 06:54:51;;;;;;;107.95;46.88;;;;;;;12.76;99.55;101876.25;5053837;28;20036;-71
2021/09/18 06:57:16;;;;;;;104.00;45.33;;;;;;;12.85;99.17;101871.94;5052837;28;20438;-74
2021/09/18 06:59:42;;;;;;;98.40;45.45;;;;;;;12.95;99.34;101880.88;5053560;28;20114;-72
2021/09/18 07:02:08;;;;;;;88.32;42.17;;;;;;;13.05;98.49;101881.81;5052885;28;20469;-73
2021/09/18 07:04:35;;;;;;;85.43;41.50;;;;;;;13.21;98.24;101880.50;5053563;28;20037;-76
2021/09/18 07:07:02;;;;;;;83.97;42.53;;;;;;;13.33;97.22;101876.78;5053503;28;20049;-80
2021/09/18 07:09:27;;;;;;;82.10;41.45;;;;;;;13.50;96.60;101880.72;5053321;28;20420;-83
2021/09/18 07:11:52;;;;;;;76.25;40.55;;;;;;;13.70;96.81;101881.66;5053142;28;20090;-82
2021/09/18 07:14:18;;;;;;;70.25;37.88;;;;;;;13.90;94.69;101882.56;5035126;28;20523;-81
2021/09/18 07:16:43;;;;;;;67.28;38.03;;;;;;;14.11;94.19;101884.34;5045765;28;20457;-84
2021/09/18 07:19:08;;;;;;;62.42;36.22;;;;;;;14.29;92.76;101882.66;5050335;28;20037;-83
2021/09/18 07:21:34;;;;;;;61.60;35.70;;;;;;;14.52;92.99;101885.09;5050448;28;20040;-81
2021/09/18 07:23:59;;;;;;;65.10;36.55;;;;;;;14.73;91.93;101887.66;5051027;28;20068;-79
2021/09/18 07:26:25;;;;;;;56.05;33.45;;;;;;;14.95;91.81;101891.06;5049632;28;20354;-79
2021/09/18 07:28:50;;;;;;;56.28;33.80;;;;;;;15.16;90.27;101883.69;5050264;28;20120;-80
2021/09/18 07:31:15;;;;;;;55.38;34.47;;;;;;;15.34;89.57;101891.00;5049877;28;20450;-80
2021/09/18 07:33:41;;;;;;;63.30;34.67;;;;;;;15.56;89.21;101883.59;5050674;28;20056;-79
2021/09/18 07:36:06;;;;;;;54.10;32.88;;;;;;;15.78;88.01;101890.44;5050058;28;20041;-80
2021/09/18 07:38:32;;;;;;;52.47;33.17;;;;;;;15.98;86.46;101889.38;5050206;28;20465;-80
2021/09/18 07:40:57;;;;;;;51.95;33.28;;;;;;;16.08;85.42;101886.66;5050724;28;20037;-78
2021/09/18 07:43:23;;;;;;;56.38;34.60;;;;;;;16.28;86.58;101883.84;5048782;28;20068;-84
2021/09/18 07:45:49;;;;;;;50.78;32.92;;;;;;;16.44;85.39;101888.56;5050461;28;20036;-81
2021/09/18 07:48:15;;;;;;;52.58;33.22;;;;;;;16.58;85.70;101896.06;5049881;28;20036;-80
2021/09/18 07:50:40;;;;;;;55.30;32.15;;;;;;;16.73;85.14;101893.69;5049765;28;20029;-82
2021/09/18 07:53:07;;;;;;;57.35;34.00;;;;;;;16.85;83.54;101891.59;5049949;28;20119;-80
2021/09/18 07:55:33;;;;;;;53.97;34.42;;;;;;;17.00;82.61;101895.47;5049840;28;20033;-80
2021/09/18 07:57:59;;;;;;;52.42;34.33;;;;;;;17.04;83.12;101893.31;5048278;28;20040;-80
2021/09/18 08:00:24;;;;;;;58.08;35.92;;;;;;;17.02;83.38;101892.63;5049871;28;20033;-80
2021/09/18 08:02:51;;;;;;;55.72;36.38;;;;;;;17.08;83.15;101892.84;5051020;28;20495;-84
2021/09/18 08:05:20;;;;;;;51.08;33.10;;;;;;;17.14;82.88;101899.44;5049237;28;20040;-81
2021/09/18 08:07:45;;;;;;;51.55;32.88;;;;;;;17.19;82.68;101896.28;5047250;28;20028;-73
2021/09/18 08:10:13;;;;;;;57.47;36.70;;;;;;;17.24;82.26;101902.88;5045845;28;20519;-74
2021/09/18 08:12:40;;;;;;;54.65;35.47;;;;;;;17.25;81.76;101896.47;5052138;28;20036;-74
2021/09/18 08:15:06;;;;;;;58.83;37.33;;;;;;;17.31;82.00;101903.09;5052423;28;20052;-74
2021/09/18 08:17:31;;;;;;;60.13;37.15;;;;;;;17.35;82.28;101909.00;5051904;28;20033;-74
2021/09/18 08:19:57;;;;;;;55.70;36.95;;;;;;;17.43;81.12;101903.66;5052356;28;20025;-74
2021/09/18 08:22:22;;;;;;;57.50;36.85;;;;;;;17.51;80.73;101903.75;5051677;28;20040;-74
2021/09/18 08:24:48;;;;;;;58.40;36.75;;;;;;;17.65;81.02;101907.69;5044621;28;20110;-75
2021/09/18 08:27:13;;;;;;;59.20;36.78;;;;;;;17.80;80.12;101908.75;5041468;28;20037;-73
2021/09/18 08:29:38;;;;;;;54.47;36.47;;;;;;;17.93;80.54;101894.06;5051496;28;20037;-73
2021/09/18 08:32:04;;;;;;;64.15;36.08;;;;;;;18.13;79.58;101900.84;5051436;28;20040;-73
2021/09/18 08:34:30;;;;;;;56.75;35.67;;;;;;;18.24;78.73;101905.09;5051151;28;20233;-73
2021/09/18 08:36:55;;;;;;;49.65;33.33;;;;;;;18.41;77.85;101900.59;5051308;28;20119;-72
2021/09/18 08:39:20;;;;;;;54.88;35.92;;;;;;;18.54;77.73;101905.50;5049115;28;20047;-74
2021/09/18 08:41:47;;;;;;;50.42;35.88;;;;;;;18.68;77.24;101899.44;5050577;28;20056;-74
2021/09/18 08:44:14;;;;;;;48.63;32.30;;;;;;;18.89;76.34;101905.41;5049994;28;20465;-74
2021/09/18 08:46:40;;;;;;;50.13;33.42;;;;;;;18.88;74.42;101909.09;5050763;28;20029;-74
2021/09/18 08:49:06;;;;;;;53.20;30.27;;;;;;;18.91;73.80;101896.13;5050789;28;20535;-74
2021/09/18 08:51:31;;;;;;;44.10;30.23;;;;;;;19.00;73.71;101895.13;5050792;28;20041;-75
2021/09/18 08:53:57;;;;;;;40.75;29.75;;;;;;;19.07;72.24;101900.66;5051162;28;20041;-75
2021/09/18 08:56:23;;;;;;;46.63;29.80;;;;;;;19.30;72.92;101899.97;5050668;28;20108;-73
2021/09/18 08:58:49;;;;;;;42.70;28.77;;;;;;;19.68;72.03;101902.94;5050742;28;20136;-79
2021/09/18 09:01:20;;;;;;;49.67;29.48;;;;;;;19.98;71.82;101906.72;5049570;28;20527;-79
2021/09/18 09:03:55;;;;;;;36.95;27.13;;;;;;;20.28;67.43;101908.78;5030814;28;20040;-79
2021/09/18 09:06:21;;;;;;;41.05;26.40;;;;;;;20.78;65.75;101896.66;5049664;28;20103;-76
2021/09/18 09:08:57;;;;;;;37.85;26.38;;;;;;;21.27;63.40;101896.22;5051084;28;20465;-76
2021/09/18 09:11:27;;;;;;;33.20;24.52;;;;;;;21.58;64.01;101905.22;5050346;28;20029;-78
2021/09/18 09:14:05;;;;;;;34.85;24.77;;;;;;;21.70;64.02;101900.19;5050755;28;20026;-75
2021/09/18 09:16:33;;;;;;;36.78;24.85;;;;;;;21.69;63.75;101912.91;5065260;28;20102;-76
2021/09/18 09:19:14;;;;;;;34.83;24.40;;;;;;;21.56;64.13;101905.41;5070913;28;20032;-76
2021/09/18 09:21:49;;;;;;;33.08;23.80;;;;;;;21.75;61.72;101906.72;5073086;28;20060;-76
2021/09/18 09:24:17;;;;;;;34.80;24.45;;;;;;;22.63;59.52;101901.31;5062089;28;20033;-80
2021/09/18 09:27:15;;;;;;;29.13;21.35;;;;;;;23.44;56.65;101904.69;5053451;28;20051;-78
2021/09/18 09:29:58;;;;;;;28.98;21.20;;;;;;;24.07;54.48;101904.66;5053224;28;20045;-76
2021/09/18 09:32:30;;;;;;;26.45;20.67;;;;;;;24.63;52.30;101904.41;5052448;28;20064;-76
2021/09/18 09:34:57;;;;;;;27.48;20.40;;;;;;;24.69;51.49;101900.00;5053244;28;20025;-75
2021/09/18 09:37:23;;;;;;;27.73;20.08;;;;;;;24.33;52.05;101898.44;5053597;28;20107;-80
2021/09/18 09:39:59;;;;;;;26.42;20.25;;;;;;;24.44;54.66;101903.28;5054338;28;20094;-80
2021/09/18 09:42:44;;;;;;;29.10;19.77;;;;;;;24.55;52.67;101907.28;5053290;28;20052;-81
2021/09/18 09:45:16;;;;;;;25.50;19.23;;;;;;;24.46;53.44;101905.81;5059058;28;20040;-73
2021/09/18 09:47:43;;;;;;;26.52;19.80;;;;;;;24.16;52.95;101911.56;5061384;28;20033;-73
2021/09/18 09:50:10;;;;;;;26.00;19.10;;;;;;;24.02;54.64;101913.41;5054095;28;20112;-72
2021/09/18 09:52:36;;;;;;;31.05;19.05;;;;;;;24.13;53.63;101913.88;5053216;28;20283;-74
2021/09/18 09:55:14;;;;;;;25.42;18.15;;;;;;;24.83;51.35;101909.03;5052702;28;20037;-74
2021/09/18 09:57:41;;;;;;;27.75;18.20;;;;;;;24.68;49.69;101908.38;5053366;28;20115;-73
2021/09/18 10:00:12;;;;;;;24.90;17.33;;;;;;;24.34;51.49;101908.28;5053492;28;20112;-74
2021/09/18 10:02:39;;;;;;;23.90;18.02;;;;;;;24.53;50.75;101911.25;5052910;28;20035;-73
2021/09/18 10:05:06;;;;;;;25.25;16.75;;;;;;;25.27;50.58;101912.97;5053966;28;20075;-74
2021/09/18 10:07:32;;;;;;;26.05;16.75;;;;;;;24.94;47.23;101908.41;5052738;28;20056;-73
2021/09/18 10:10:00;;;;;;;21.88;16.00;;;;;;;25.00;48.95;101904.00;5053392;28;20087;-76
2021/09/18 10:12:26;;;;;;;25.25;16.60;;;;;;;24.88;50.66;101909.22;5052748;28;20515;-76
2021/09/18 10:14:54;;;;;;;21.30;15.73;;;;;;;26.04;47.47;101910.53;5055706;28;20037;-73
2021/09/18 10:17:20;;;;;;;20.75;16.00;;;;;;;26.83;44.19;101906.75;5072773;28;20362;-74
2021/09/18 10:25:28;;;;;;;21.95;15.27;;;;;;;28.07;42.37;101898.53;5073655;28;20093;-74
2021/09/18 10:28:09;;;;;;;14.65;11.95;;;;;;;28.41;38.84;101892.59;5073753;28;20064;-74
2021/09/18 10:30:46;;;;;;;14.02;12.45;;;;;;;27.43;40.67;101900.75;5072758;28;20456;-73
2021/09/18 10:33:34;;;;;;;16.02;12.52;;;;;;;26.61;44.31;101896.16;5072584;28;20032;-74
2021/09/18 10:36:04;;;;;;;20.60;12.45;;;;;;;25.88;45.25;101895.47;5073073;28;20366;-74
2021/09/18 10:38:32;;;;;;;15.48;11.35;;;;;;;25.50;45.60;101896.22;5072701;28;20051;-74
2021/09/18 10:41:01;;;;;;;16.73;13.68;;;;;;;25.61;44.90;101881.09;5073379;28;20377;-74
2021/09/18 10:43:33;;;;;;;13.25;11.45;;;;;;;25.37;45.70;101890.81;5072391;28;20031;-74
2021/09/18 10:45:59;;;;;;;13.52;10.55;;;;;;;24.93;46.79;101893.13;5072842;28;20115;-73
2021/09/18 10:48:45;;;;;;;10.82;8.93;;;;;;;24.78;47.52;101892.47;5072423;28;20471;-74
2021/09/18 10:51:39;;;;;;;12.40;9.52;;;;;;;25.60;44.60;101897.66;5073032;28;20032;-73
2021/09/18 10:54:15;;;;;;;14.13;9.70;;;;;;;26.48;43.44;101890.78;5072878;28;20021;-76
2021/09/18 10:56:56;;;;;;;17.75;11.82;;;;;;;26.82;43.29;101889.50;5072307;28;20043;-76
2021/09/18 10:59:40;;;;;;;;;;;;;;;26.25;42.87;101886.72;5071644;28;20472;-76
2021/09/18 11:02:30;;;;;;;10.98;9.43;;;;;;;26.33;42.47;101889.19;5072464;28;20287;-74
2021/09/18 11:04:56;;;;;;;14.73;9.52;;;;;;;26.92;41.37;101884.38;5072647;28;20047;-78
2021/09/18 11:07:40;;;;;;;12.35;7.50;;;;;;;27.51;38.51;101883.22;5071570;28;20550;-79
2021/09/18 11:10:06;;;;;;;9.27;7.10;;;;;;;27.56;36.20;101884.22;5058203;28;20037;-80